createdAt,value
2023-04-20T00:00:59.656Z,22.50
2023-04-20T00:03:26.525Z,29.25
2023-04-20T00:05:54.059Z,17.38
2023-04-20T00:08:20.385Z,11.18
2023-04-20T00:10:46.937Z,12.18
2023-04-20T00:13:13.270Z,31.98
2023-04-20T00:15:39.614Z,16.85
2023-04-20T00:18:06.307Z,9.77
2023-04-20T00:20:33.260Z,9.75
2023-04-20T00:22:59.524Z,9.63
2023-04-20T00:25:25.887Z,11.35
2023-04-20T00:27:52.203Z,6.63
2023-04-20T00:30:18.602Z,16.73
2023-04-20T00:32:45.080Z,10.10
2023-04-20T00:35:12.904Z,7.13
2023-04-20T00:37:39.250Z,12.68
2023-04-20T00:40:06.866Z,9.55
2023-04-20T00:42:33.267Z,8.35
2023-04-20T00:44:59.587Z,11.00
2023-04-20T00:47:25.987Z,9.70
2023-04-20T00:49:53.183Z,19.08
2023-04-20T00:52:21.022Z,8.65
2023-04-20T00:54:47.460Z,6.65
2023-04-20T00:57:19.389Z,9.25
2023-04-20T00:59:46.388Z,8.80
2023-04-20T01:02:13.736Z,8.45
2023-04-20T01:04:41.416Z,7.03
2023-04-20T01:07:07.740Z,11.30
2023-04-20T01:09:34.197Z,9.02
2023-04-20T01:12:01.366Z,12.40
2023-04-20T01:14:27.723Z,8.57
2023-04-20T01:16:54.030Z,10.27
2023-04-20T01:19:21.485Z,9.98
2023-04-20T01:21:48.344Z,7.85
2023-04-20T01:24:15.892Z,8.27
2023-04-20T01:26:42.231Z,9.57
2023-04-20T01:29:08.558Z,13.70
2023-04-20T01:31:35.543Z,7.10
2023-04-20T01:34:01.883Z,9.18
2023-04-20T01:36:28.183Z,9.27
2023-04-20T01:38:54.606Z,10.95
2023-04-20T01:41:21.345Z,7.45
2023-04-20T01:43:48.452Z,9.18
2023-04-20T01:46:14.833Z,5.57
2023-04-20T01:48:41.221Z,8.77
2023-04-20T01:51:09.432Z,8.02
2023-04-20T01:53:35.884Z,8.00
2023-04-20T01:56:02.267Z,7.22
2023-04-20T01:58:28.784Z,9.70
2023-04-20T02:00:55.192Z,7.22
2023-04-20T02:03:21.761Z,7.53
2023-04-20T02:05:48.319Z,10.80
2023-04-20T02:08:14.646Z,11.18
2023-04-20T02:10:40.982Z,10.18
2023-04-20T02:13:08.744Z,6.97
2023-04-20T02:15:35.076Z,8.02
2023-04-20T02:18:01.486Z,8.05
2023-04-20T02:20:27.847Z,11.60
2023-04-20T02:22:54.358Z,14.27
2023-04-20T02:25:21.209Z,15.20
2023-04-20T02:27:47.551Z,19.20
2023-04-20T02:30:13.969Z,16.30
2023-04-20T02:32:42.305Z,12.55
2023-04-20T02:35:09.291Z,14.20
2023-04-20T02:37:35.678Z,14.27
2023-04-20T02:40:04.863Z,8.85
2023-04-20T02:42:31.351Z,10.23
2023-04-20T02:44:59.275Z,13.18
2023-04-20T02:47:25.841Z,9.23
2023-04-20T02:49:54.015Z,12.00
2023-04-20T02:52:20.557Z,11.77
2023-04-20T02:54:47.171Z,10.23
2023-04-20T02:57:13.587Z,15.50
2023-04-20T02:59:40.501Z,11.48
2023-04-20T03:02:20.738Z,12.80
2023-04-20T03:04:47.612Z,15.18
2023-04-20T03:07:18.352Z,14.23
2023-04-20T03:09:46.257Z,12.05
2023-04-20T03:12:18.609Z,14.63
2023-04-20T03:15:18.540Z,15.18
2023-04-20T03:17:55.190Z,25.48
2023-04-20T03:20:21.596Z,23.20
2023-04-20T03:22:48.051Z,18.48
2023-04-20T03:25:15.207Z,16.00
2023-04-20T03:28:10.927Z,12.40
2023-04-20T03:30:40.696Z,14.88
2023-04-20T03:33:13.509Z,12.55
2023-04-20T03:35:40.100Z,15.13
2023-04-20T03:38:06.576Z,17.15
2023-04-20T03:40:32.865Z,11.95
2023-04-20T03:42:59.269Z,15.43
2023-04-20T03:45:27.427Z,12.75
2023-04-20T03:47:53.899Z,16.45
2023-04-20T03:50:21.447Z,17.15
2023-04-20T03:52:48.875Z,12.57
2023-04-20T03:55:15.403Z,10.98
2023-04-20T03:57:47.605Z,11.20
2023-04-20T04:00:14.705Z,14.50
2023-04-20T04:02:46.972Z,13.25
2023-04-20T04:05:18.401Z,12.38
2023-04-20T04:07:44.767Z,14.27
2023-04-20T04:10:13.033Z,16.50
2023-04-20T04:12:39.405Z,11.50
2023-04-20T04:15:07.418Z,13.25
2023-04-20T04:17:39.261Z,12.05
2023-04-20T04:20:09.610Z,15.10
2023-04-20T04:22:36.388Z,13.55
2023-04-20T04:25:23.162Z,14.18
2023-04-20T04:27:50.892Z,18.23
2023-04-20T04:30:17.870Z,15.55
2023-04-20T04:32:44.657Z,15.63
2023-04-20T04:35:11.669Z,15.73
2023-04-20T04:37:38.409Z,18.52
2023-04-20T04:40:09.012Z,15.85
2023-04-20T04:42:36.469Z,21.35
2023-04-20T04:45:05.605Z,14.07
2023-04-20T04:47:35.728Z,15.32
2023-04-20T04:50:03.462Z,15.52
2023-04-20T04:52:29.846Z,13.30
2023-04-20T04:54:56.196Z,12.57
2023-04-20T04:57:22.486Z,15.40
2023-04-20T04:59:48.906Z,17.38
2023-04-20T05:02:15.456Z,15.48
2023-04-20T05:04:41.962Z,13.65
2023-04-20T05:07:10.327Z,16.48
2023-04-20T05:09:37.290Z,16.55
2023-04-20T05:12:03.937Z,13.93
2023-04-20T05:14:31.722Z,14.23
2023-04-20T05:16:58.806Z,20.40
2023-04-20T05:19:25.368Z,13.10
2023-04-20T05:21:51.703Z,12.93
2023-04-20T05:24:19.261Z,16.88
2023-04-20T05:26:46.364Z,13.98
2023-04-20T05:29:14.670Z,16.50
2023-04-20T05:31:41.185Z,14.73
2023-04-20T05:34:07.535Z,13.50
2023-04-20T05:36:34.053Z,15.68
2023-04-20T05:39:00.708Z,20.20
2023-04-20T05:41:27.440Z,13.60
2023-04-20T05:43:54.898Z,13.32
2023-04-20T05:46:21.654Z,13.63
2023-04-20T05:48:48.115Z,14.43
2023-04-20T05:51:14.960Z,16.15
2023-04-20T05:53:41.598Z,14.70
2023-04-20T05:56:08.263Z,13.15
2023-04-20T05:58:35.997Z,11.65
2023-04-20T06:01:03.874Z,11.95
2023-04-20T06:03:30.722Z,18.83
2023-04-20T06:05:57.138Z,17.35
2023-04-20T06:08:23.567Z,13.82
2023-04-20T06:10:54.839Z,15.63
2023-04-20T06:15:47.924Z,14.00
2023-04-20T06:18:14.384Z,13.00
2023-04-20T06:20:40.804Z,12.85
2023-04-20T06:23:07.142Z,20.05
2023-04-20T06:25:36.189Z,13.95
2023-04-20T06:28:03.517Z,10.43
2023-04-20T06:30:29.854Z,11.40
2023-04-20T06:32:56.539Z,13.30
2023-04-20T06:35:23.371Z,12.95
2023-04-20T06:37:49.825Z,15.48
2023-04-20T06:40:16.585Z,14.73
2023-04-20T06:42:42.891Z,16.25
2023-04-20T06:45:09.641Z,13.13
2023-04-20T06:47:36.673Z,13.93
2023-04-20T06:50:07.228Z,12.07
2023-04-20T06:52:33.601Z,13.82
2023-04-20T06:55:00.337Z,13.73
2023-04-20T06:57:26.767Z,15.23
2023-04-20T06:59:53.148Z,14.65
2023-04-20T07:02:19.488Z,16.50
2023-04-20T07:04:45.887Z,14.68
2023-04-20T07:07:12.240Z,12.52
2023-04-20T07:09:38.550Z,14.55
2023-04-20T07:12:05.074Z,12.10
2023-04-20T07:14:31.539Z,10.63
2023-04-20T07:16:57.880Z,11.10
2023-04-20T07:19:24.448Z,10.77
2023-04-20T07:21:51.123Z,10.55
2023-04-20T07:24:17.414Z,11.85
2023-04-20T07:26:43.765Z,19.38
2023-04-20T07:29:10.256Z,17.67
2023-04-20T07:31:36.601Z,8.50
2023-04-20T07:34:03.101Z,11.20
2023-04-20T07:36:29.778Z,9.65
2023-04-20T07:38:56.131Z,11.55
2023-04-20T07:41:23.068Z,9.80
2023-04-20T07:43:49.412Z,9.77
2023-04-20T07:46:22.892Z,8.35
2023-04-20T07:48:49.607Z,10.05
2023-04-20T07:51:16.016Z,22.73
2023-04-20T07:53:42.465Z,14.38
2023-04-20T07:56:08.779Z,9.30
2023-04-20T07:58:38.334Z,11.65
2023-04-20T08:01:04.802Z,9.18
2023-04-20T08:03:31.725Z,12.48
2023-04-20T08:05:58.343Z,9.93
2023-04-20T08:08:24.910Z,8.52
2023-04-20T08:10:51.278Z,7.68
2023-04-20T08:13:17.578Z,9.88
2023-04-20T08:15:44.028Z,7.00
2023-04-20T08:18:11.394Z,6.03
2023-04-20T08:20:37.741Z,7.32
2023-04-20T08:23:04.150Z,6.57
2023-04-20T08:25:32.266Z,14.40
2023-04-20T08:27:58.572Z,7.05
2023-04-20T08:30:26.326Z,6.35
2023-04-20T08:32:52.764Z,8.38
2023-04-20T08:35:19.283Z,9.20
2023-04-20T08:37:46.125Z,7.05
2023-04-20T08:40:12.822Z,10.65
2023-04-20T08:42:39.252Z,8.65
2023-04-20T08:45:06.066Z,8.02
2023-04-20T08:47:33.463Z,18.85
2023-04-20T08:50:00.436Z,18.38
2023-04-20T08:52:26.752Z,8.13
2023-04-20T08:54:57.220Z,8.82
2023-04-20T08:59:51.707Z,7.75
2023-04-20T09:02:18.056Z,6.20
2023-04-20T09:04:48.759Z,9.55
2023-04-20T09:07:20.190Z,10.88
2023-04-20T09:12:27.200Z,6.78
2023-04-20T09:14:53.866Z,7.03
2023-04-20T09:17:40.467Z,5.63
2023-04-20T09:20:08.412Z,7.10
2023-04-20T09:22:36.318Z,6.72
2023-04-20T09:25:16.696Z,10.65
2023-04-20T09:27:43.000Z,6.00
2023-04-20T09:30:09.813Z,5.40
2023-04-20T09:32:36.308Z,6.55
2023-04-20T09:35:02.686Z,8.63
2023-04-20T09:37:28.986Z,14.10
2023-04-20T09:39:59.832Z,11.18
2023-04-20T09:42:28.234Z,7.88
2023-04-20T09:44:55.683Z,7.18
2023-04-20T09:47:22.424Z,9.68
2023-04-20T09:49:50.034Z,9.85
2023-04-20T09:52:18.406Z,11.27
2023-04-20T09:54:45.577Z,10.52
2023-04-20T09:57:13.492Z,12.68
2023-04-20T09:59:43.650Z,17.35
2023-04-20T10:02:13.933Z,12.15
2023-04-20T10:04:56.647Z,12.47
2023-04-20T10:07:27.719Z,12.02
2023-04-20T10:10:16.081Z,12.00
2023-04-20T10:12:49.042Z,13.38
2023-04-20T10:15:15.459Z,12.45
2023-04-20T10:17:41.880Z,15.23
2023-04-20T10:20:26.017Z,12.50
2023-04-20T10:22:53.585Z,13.30
2023-04-20T10:25:23.169Z,12.90
2023-04-20T10:27:58.025Z,12.35
2023-04-20T10:30:26.658Z,13.23
2023-04-20T10:33:11.090Z,13.57
2023-04-20T10:35:54.509Z,11.55
2023-04-20T10:38:35.325Z,9.70
2023-04-20T10:41:12.964Z,12.88
2023-04-20T10:43:42.960Z,13.13
2023-04-20T10:46:16.424Z,11.32
2023-04-20T10:48:57.226Z,11.55
2023-04-20T10:51:24.529Z,11.10
2023-04-20T10:54:08.576Z,10.55
2023-04-20T10:56:47.398Z,10.50
2023-04-20T10:59:19.106Z,11.38
2023-04-20T11:01:46.770Z,10.30
2023-04-20T11:04:14.467Z,16.80
2023-04-20T11:06:44.256Z,12.05
2023-04-20T11:09:19.197Z,10.45
2023-04-20T11:11:46.053Z,12.25
2023-04-20T11:14:12.784Z,12.13
2023-04-20T11:19:09.985Z,10.88
2023-04-20T11:21:37.658Z,15.15
2023-04-20T11:24:06.110Z,13.10
2023-04-20T11:26:40.808Z,12.93
2023-04-20T11:29:07.459Z,9.38
2023-04-20T11:31:34.729Z,10.55
2023-04-20T11:34:01.290Z,15.55
2023-04-20T11:36:29.636Z,11.32
2023-04-20T11:39:07.546Z,12.35
2023-04-20T11:41:33.857Z,10.82
2023-04-20T11:44:00.171Z,11.32
2023-04-20T11:46:26.743Z,10.85
2023-04-20T11:48:53.929Z,11.95
2023-04-20T11:51:20.244Z,10.35
2023-04-20T11:53:46.536Z,13.43
2023-04-20T11:56:12.863Z,10.77
2023-04-20T11:58:39.161Z,10.43
2023-04-20T12:01:05.668Z,12.73
2023-04-20T12:03:32.432Z,13.25
2023-04-20T12:05:58.896Z,11.07
2023-04-20T12:08:25.254Z,13.25
2023-04-20T12:10:51.622Z,12.80
2023-04-20T12:13:17.945Z,11.63
2023-04-20T12:15:44.339Z,14.25
2023-04-20T12:18:10.930Z,13.73
2023-04-20T12:20:37.360Z,12.55
2023-04-20T12:23:03.943Z,15.13
2023-04-20T12:25:30.371Z,14.18
2023-04-20T12:27:56.775Z,13.88
2023-04-20T12:30:23.229Z,14.50
2023-04-20T12:32:49.537Z,14.05
2023-04-20T12:35:15.886Z,12.35
2023-04-20T12:37:42.228Z,12.68
2023-04-20T12:40:08.964Z,14.90
2023-04-20T12:42:35.286Z,14.32
2023-04-20T12:45:01.698Z,11.05
2023-04-20T12:47:28.031Z,11.00
2023-04-20T12:49:54.935Z,11.38
2023-04-20T12:52:21.460Z,12.10
2023-04-20T12:54:47.850Z,11.55
2023-04-20T12:57:14.148Z,12.50
2023-04-20T12:59:40.502Z,11.90
2023-04-20T13:02:06.976Z,11.85
2023-04-20T13:04:33.402Z,10.43
2023-04-20T13:06:59.723Z,13.00
2023-04-20T13:09:27.097Z,13.13
2023-04-20T13:11:53.828Z,11.50
2023-04-20T13:14:20.731Z,11.80
2023-04-20T13:16:47.425Z,12.30
2023-04-20T13:19:14.292Z,9.88
2023-04-20T13:21:40.767Z,12.75
2023-04-20T13:24:07.637Z,13.55
2023-04-20T13:26:34.154Z,11.30
2023-04-20T13:29:00.654Z,12.55
2023-04-20T13:31:27.016Z,18.33
2023-04-20T13:33:54.705Z,14.38
2023-04-20T13:36:22.644Z,10.55
2023-04-20T13:38:49.019Z,9.63
2023-04-20T13:41:15.829Z,9.23
2023-04-20T13:43:43.693Z,11.27
2023-04-20T13:46:10.995Z,10.57
2023-04-20T13:48:37.968Z,12.75
2023-04-20T13:51:05.674Z,10.25
2023-04-20T13:53:32.028Z,10.07
2023-04-20T13:55:58.404Z,10.52
2023-04-20T13:58:24.685Z,9.30
2023-04-20T14:00:51.124Z,10.57
2023-04-20T14:03:19.884Z,10.50
2023-04-20T14:05:46.439Z,11.00
2023-04-20T14:08:13.609Z,9.90
2023-04-20T14:10:40.404Z,9.27
2023-04-20T14:13:07.154Z,8.93
2023-04-20T14:15:34.097Z,10.10
2023-04-20T14:18:01.148Z,7.70
2023-04-20T14:20:27.558Z,11.35
2023-04-20T14:22:54.139Z,9.65
2023-04-20T14:25:20.583Z,11.30
2023-04-20T14:27:47.078Z,9.55
2023-04-20T14:30:13.918Z,9.80
2023-04-20T14:32:40.755Z,10.75
2023-04-20T14:35:09.016Z,8.77
2023-04-20T14:37:35.369Z,7.28
2023-04-20T14:40:01.718Z,53.95
2023-04-20T14:42:28.059Z,10.50
2023-04-20T14:44:54.439Z,8.30
2023-04-20T14:47:21.102Z,6.72
2023-04-20T14:49:47.578Z,9.13
2023-04-20T14:52:14.976Z,7.00
2023-04-20T14:54:41.362Z,8.20
2023-04-20T14:57:07.890Z,7.57
2023-04-20T14:59:34.275Z,6.60
2023-04-20T15:02:03.138Z,7.35
2023-04-20T15:04:29.959Z,7.40
2023-04-20T15:06:56.498Z,5.80
2023-04-20T15:09:22.828Z,8.93
2023-04-20T15:11:49.140Z,7.57
2023-04-20T15:14:15.866Z,8.27
2023-04-20T15:16:42.587Z,8.73
2023-04-20T15:19:09.054Z,8.30
2023-04-20T15:21:35.388Z,8.55
2023-04-20T15:24:01.670Z,8.68
2023-04-20T15:26:28.002Z,8.48
2023-04-20T15:28:54.896Z,9.18
2023-04-20T15:31:21.368Z,21.98
2023-04-20T15:33:47.993Z,13.15
2023-04-20T15:36:18.267Z,10.48
2023-04-20T15:38:44.783Z,8.00
2023-04-20T15:41:11.220Z,14.52
2023-04-20T15:43:39.216Z,10.48
2023-04-20T15:46:05.692Z,9.80
2023-04-20T15:48:32.031Z,10.45
2023-04-20T15:50:58.314Z,17.15
2023-04-20T15:53:25.116Z,21.25
2023-04-20T15:55:51.432Z,19.67
2023-04-20T15:58:17.814Z,12.63
2023-04-20T16:00:44.229Z,17.92
2023-04-20T16:03:11.084Z,16.80
2023-04-20T16:05:37.521Z,17.30
2023-04-20T16:08:05.260Z,14.63
2023-04-20T16:10:31.723Z,15.32
2023-04-20T16:12:58.164Z,11.60
2023-04-20T16:15:24.751Z,14.98
2023-04-20T16:17:51.109Z,15.10
2023-04-20T16:20:17.476Z,14.07
2023-04-20T16:22:43.810Z,24.10
2023-04-20T16:25:12.211Z,20.05
2023-04-20T16:27:38.652Z,21.40
2023-04-20T16:30:05.793Z,17.30
2023-04-20T16:32:32.212Z,18.40
2023-04-20T16:34:58.592Z,15.63
2023-04-20T16:37:25.116Z,19.23
2023-04-20T16:39:51.403Z,14.50
2023-04-20T16:42:17.704Z,16.98
2023-04-20T16:44:44.030Z,15.05
2023-04-20T16:47:10.453Z,13.30
2023-04-20T16:49:36.782Z,16.13
2023-04-20T16:52:03.083Z,17.15
2023-04-20T16:54:29.412Z,18.13
2023-04-20T16:56:56.110Z,14.82
2023-04-20T16:59:22.425Z,14.23
2023-04-20T17:01:49.101Z,14.98
2023-04-20T17:04:17.478Z,16.52
2023-04-20T17:06:46.200Z,15.15
2023-04-20T17:09:12.492Z,17.17
2023-04-20T17:11:39.606Z,14.73
2023-04-20T17:14:07.011Z,15.50
2023-04-20T17:16:33.489Z,18.42
2023-04-20T17:18:59.929Z,17.48
2023-04-20T17:21:28.816Z,18.80
2023-04-20T17:23:56.412Z,15.57
2023-04-20T17:26:22.781Z,19.65
2023-04-20T17:28:49.209Z,16.13
2023-04-20T17:31:15.562Z,18.20
2023-04-20T17:33:43.226Z,16.48
2023-04-20T17:36:09.515Z,19.95
2023-04-20T17:38:38.179Z,17.95
2023-04-20T17:41:04.832Z,17.35
2023-04-20T17:43:31.228Z,18.25
2023-04-20T17:46:00.755Z,22.08
2023-04-20T17:48:27.228Z,17.83
2023-04-20T17:50:53.524Z,22.70
2023-04-20T17:53:19.827Z,16.58
2023-04-20T17:55:46.226Z,20.08
2023-04-20T17:58:12.899Z,16.35
2023-04-20T18:00:39.290Z,20.40
2023-04-20T18:03:05.759Z,18.27
2023-04-20T18:05:32.132Z,23.52
2023-04-20T18:07:58.441Z,18.58
2023-04-20T18:10:24.850Z,22.92
2023-04-20T18:12:51.285Z,20.65
2023-04-20T18:15:17.719Z,20.90
2023-04-20T18:17:44.275Z,23.98
2023-04-20T18:20:10.922Z,22.15
2023-04-20T18:22:37.543Z,23.30
2023-04-20T18:25:04.723Z,27.65
2023-04-20T18:27:31.311Z,27.20
2023-04-20T18:30:00.794Z,26.67
2023-04-20T18:32:27.500Z,22.63
2023-04-20T18:34:54.005Z,42.65
2023-04-20T18:37:20.488Z,38.20
2023-04-20T18:39:46.826Z,28.05
2023-04-20T18:42:13.183Z,26.05
2023-04-20T18:44:39.622Z,24.45
2023-04-20T18:47:06.146Z,26.15
2023-04-20T18:49:34.686Z,29.63
2023-04-20T18:52:01.042Z,33.05
2023-04-20T18:54:27.355Z,31.23
2023-04-20T18:56:54.764Z,25.65
2023-04-20T18:59:21.178Z,25.02
2023-04-20T19:01:48.613Z,29.10
2023-04-20T19:04:16.002Z,27.98
2023-04-20T19:06:42.476Z,29.55
2023-04-20T19:09:09.012Z,28.70
2023-04-20T19:11:35.621Z,28.45
2023-04-20T19:14:01.966Z,29.17
2023-04-20T19:16:32.587Z,29.10
2023-04-20T19:18:59.916Z,28.90
2023-04-20T19:21:26.934Z,32.67
2023-04-20T19:23:53.268Z,34.28
2023-04-20T19:26:19.760Z,33.47
2023-04-20T19:28:46.108Z,38.17
2023-04-20T19:31:13.170Z,35.58
2023-04-20T19:33:40.025Z,33.15
2023-04-20T19:36:06.481Z,34.95
2023-04-20T19:38:34.648Z,33.60
2023-04-20T19:41:01.444Z,32.13
2023-04-20T19:43:28.142Z,35.55
2023-04-20T19:45:57.761Z,31.77
2023-04-20T19:48:24.406Z,31.17
2023-04-20T19:50:51.715Z,26.33
2023-04-20T19:53:19.102Z,23.27
2023-04-20T19:55:45.419Z,23.10
2023-04-20T19:58:12.988Z,21.55
2023-04-20T20:00:39.363Z,22.58
2023-04-20T20:03:07.716Z,26.52
2023-04-20T20:05:34.831Z,26.48
2023-04-20T20:08:01.114Z,35.30
2023-04-20T20:10:27.417Z,25.90
2023-04-20T20:12:53.792Z,24.50
2023-04-20T20:15:20.330Z,26.13
2023-04-20T20:17:47.564Z,27.52
2023-04-20T20:20:15.368Z,30.77
2023-04-20T20:22:48.059Z,28.27
2023-04-20T20:25:21.797Z,35.33
2023-04-20T20:27:49.090Z,31.73
2023-04-20T20:30:15.642Z,31.40
2023-04-20T20:32:41.996Z,32.60
2023-04-20T20:35:12.925Z,33.75
2023-04-20T20:37:40.750Z,31.13
2023-04-20T20:40:14.285Z,31.50
2023-04-20T20:42:42.382Z,24.20
2023-04-20T20:45:12.240Z,36.63
2023-04-20T20:47:39.674Z,48.97
2023-04-20T20:50:06.879Z,114.57
2023-04-20T20:52:33.291Z,110.50
2023-04-20T20:54:59.676Z,66.55
2023-04-20T20:57:26.036Z,37.30
2023-04-20T20:59:53.619Z,36.72
2023-04-20T21:02:20.120Z,48.42
2023-04-20T21:04:46.558Z,59.40
2023-04-20T21:07:12.866Z,195.35
2023-04-20T21:09:39.152Z,86.97
2023-04-20T21:12:05.868Z,69.82
2023-04-20T21:14:32.461Z,55.83
2023-04-20T21:16:58.943Z,32.55
2023-04-20T21:19:25.429Z,31.63
2023-04-20T21:21:51.811Z,30.90
2023-04-20T21:24:19.064Z,28.20
2023-04-20T21:26:45.643Z,26.08
2023-04-20T21:29:11.930Z,23.20
2023-04-20T21:31:38.254Z,16.88
2023-04-20T21:34:04.654Z,21.35
2023-04-20T21:36:30.988Z,21.92
2023-04-20T21:38:57.298Z,28.08
2023-04-20T21:41:23.715Z,46.60
2023-04-20T21:43:54.499Z,53.30
2023-04-20T21:46:20.989Z,211.52
2023-04-20T21:48:47.792Z,143.70
2023-04-20T21:51:15.919Z,145.52
2023-04-20T21:53:42.526Z,77.00
2023-04-20T21:56:09.424Z,46.95
2023-04-20T21:58:35.915Z,33.05
2023-04-20T22:01:02.868Z,28.48
2023-04-20T22:03:31.173Z,22.35
2023-04-20T22:05:58.807Z,59.00
2023-04-20T22:08:25.625Z,137.55
2023-04-20T22:10:52.044Z,100.93
2023-04-20T22:13:18.395Z,33.22
2023-04-20T22:15:46.986Z,26.50
2023-04-20T22:18:13.646Z,38.45
2023-04-20T22:20:40.041Z,24.13
2023-04-20T22:23:06.342Z,27.13
2023-04-20T22:25:32.656Z,24.30
2023-04-20T22:27:58.997Z,24.27
2023-04-20T22:30:25.478Z,38.00
2023-04-20T22:32:51.860Z,85.93
2023-04-20T22:35:18.272Z,45.95
2023-04-20T22:37:44.556Z,84.43
2023-04-20T22:40:12.195Z,54.20
2023-04-20T22:42:38.510Z,44.10
2023-04-20T22:45:05.851Z,34.13
2023-04-20T22:47:32.338Z,51.70
2023-04-20T22:49:58.698Z,36.28
2023-04-20T22:52:25.060Z,35.85
2023-04-20T22:54:51.368Z,33.03
2023-04-20T22:57:18.167Z,30.95
2023-04-20T22:59:44.561Z,36.80
2023-04-20T23:02:10.993Z,36.83
2023-04-20T23:04:37.641Z,33.08
2023-04-20T23:07:04.931Z,34.20
2023-04-20T23:09:32.057Z,37.20
2023-04-20T23:11:59.554Z,35.30
2023-04-20T23:14:27.927Z,33.33
2023-04-20T23:16:54.270Z,35.78
2023-04-20T23:19:20.894Z,34.50
2023-04-20T23:21:47.471Z,38.58
2023-04-20T23:24:13.775Z,40.20
2023-04-20T23:26:40.177Z,40.35
2023-04-20T23:29:06.459Z,42.97
2023-04-20T23:31:32.817Z,39.67
2023-04-20T23:33:59.159Z,41.45
2023-04-20T23:36:26.244Z,39.78
2023-04-20T23:38:52.653Z,45.08
2023-04-20T23:41:19.055Z,47.33
2023-04-20T23:43:45.460Z,50.55
2023-04-20T23:46:12.447Z,52.65
2023-04-20T23:48:38.810Z,51.53
2023-04-20T23:51:05.392Z,50.72
2023-04-20T23:53:35.428Z,56.50
2023-04-20T23:56:01.757Z,54.10
2023-04-20T23:58:28.544Z,49.83
